createdAt,value
2023-04-14T00:02:00.663Z,99.90
2023-04-14T00:04:27.660Z,99.90
2023-04-14T00:06:57.070Z,99.90
2023-04-14T00:09:24.092Z,99.90
2023-04-14T00:11:50.931Z,99.90
2023-04-14T00:14:17.694Z,99.90
2023-04-14T00:16:46.375Z,99.90
2023-04-14T00:19:13.205Z,99.90
2023-04-14T00:21:40.047Z,99.90
2023-04-14T00:24:06.807Z,99.90
2023-04-14T00:26:33.608Z,99.90
2023-04-14T00:29:00.654Z,99.90
2023-04-14T00:31:27.747Z,99.90
2023-04-14T00:33:54.522Z,99.90
2023-04-14T00:36:21.512Z,99.90
2023-04-14T00:38:48.872Z,99.90
2023-04-14T00:41:15.589Z,99.90
2023-04-14T00:43:42.297Z,99.90
2023-04-14T00:46:09.058Z,99.90
2023-04-14T00:48:36.472Z,99.90
2023-04-14T00:51:04.241Z,99.90
2023-04-14T00:53:32.723Z,99.90
2023-04-14T00:56:00.423Z,99.90
2023-04-14T00:58:27.601Z,99.90
2023-04-14T01:00:55.754Z,99.90
2023-04-14T01:03:24.697Z,99.90
2023-04-14T01:05:51.919Z,99.90
2023-04-14T01:08:19.897Z,99.90
2023-04-14T01:10:56.086Z,99.90
2023-04-14T01:13:43.469Z,99.90
2023-04-14T01:16:19.611Z,99.90
2023-04-14T01:18:55.995Z,99.90
2023-04-14T01:21:34.718Z,99.90
2023-04-14T01:24:13.381Z,99.90
2023-04-14T01:26:42.276Z,99.90
2023-04-14T01:29:48.880Z,99.90
2023-04-14T01:32:21.981Z,99.90
2023-04-14T01:34:57.986Z,99.90
2023-04-14T01:37:30.322Z,99.90
2023-04-14T01:40:07.769Z,99.90
2023-04-14T01:42:37.762Z,99.90
2023-04-14T01:45:15.620Z,99.90
2023-04-14T01:47:43.470Z,99.90
2023-04-14T01:50:12.281Z,99.90
2023-04-14T01:52:40.109Z,99.90
2023-04-14T01:55:09.633Z,99.90
2023-04-14T01:57:38.351Z,99.90
2023-04-14T02:00:08.015Z,99.90
2023-04-14T02:02:37.700Z,99.90
2023-04-14T02:05:08.325Z,99.90
2023-04-14T02:07:35.914Z,99.90
2023-04-14T02:10:05.315Z,99.90
2023-04-14T02:12:32.252Z,99.90
2023-04-14T02:15:01.107Z,99.90
2023-04-14T02:17:28.919Z,99.90
2023-04-14T02:19:56.871Z,99.90
2023-04-14T02:22:23.605Z,99.90
2023-04-14T02:24:51.370Z,99.90
2023-04-14T02:27:25.325Z,99.90
2023-04-14T02:29:55.153Z,99.90
2023-04-14T02:32:25.708Z,99.90
2023-04-14T02:34:59.092Z,99.90
2023-04-14T02:37:29.043Z,99.90
2023-04-14T02:40:07.476Z,99.90
2023-04-14T02:42:37.405Z,99.90
2023-04-14T02:45:07.176Z,99.90
2023-04-14T02:47:38.119Z,99.90
2023-04-14T02:50:09.332Z,99.90
2023-04-14T02:52:38.866Z,99.90
2023-04-14T02:55:07.812Z,99.90
2023-04-14T02:57:35.551Z,99.90
2023-04-14T03:00:03.798Z,99.90
2023-04-14T03:02:31.771Z,99.90
2023-04-14T03:04:59.488Z,99.90
2023-04-14T03:07:27.423Z,99.90
2023-04-14T03:09:55.539Z,99.90
2023-04-14T03:12:24.175Z,99.90
2023-04-14T03:14:52.075Z,99.90
2023-04-14T03:17:21.237Z,99.90
2023-04-14T03:19:50.515Z,99.90
2023-04-14T03:22:19.194Z,99.90
2023-04-14T03:24:46.821Z,99.90
2023-04-14T03:27:22.846Z,99.90
2023-04-14T03:29:52.981Z,99.90
2023-04-14T03:32:21.581Z,99.90
2023-04-14T03:34:54.143Z,99.90
2023-04-14T03:37:26.207Z,99.90
2023-04-14T03:39:54.199Z,99.90
2023-04-14T03:42:22.330Z,99.90
2023-04-14T03:44:53.370Z,99.90
2023-04-14T03:47:23.578Z,99.90
2023-04-14T03:49:52.529Z,99.90
2023-04-14T03:52:22.906Z,99.90
2023-04-14T03:54:53.272Z,99.90
2023-04-14T03:57:23.158Z,99.90
2023-04-14T03:59:51.182Z,99.90
2023-04-14T04:02:19.372Z,99.90
2023-04-14T04:04:47.339Z,99.90
2023-04-14T04:07:14.692Z,99.90
2023-04-14T04:09:42.871Z,99.90
2023-04-14T04:12:11.764Z,99.90
2023-04-14T04:14:40.478Z,99.90
2023-04-14T04:17:09.059Z,99.90
2023-04-14T04:19:37.874Z,99.90
2023-04-14T04:22:06.051Z,99.90
2023-04-14T04:24:40.515Z,99.90
2023-04-14T04:27:20.286Z,99.90
2023-04-14T04:29:54.053Z,99.90
2023-04-14T04:32:21.145Z,99.90
2023-04-14T04:34:50.384Z,99.90
2023-04-14T04:37:19.183Z,99.90
2023-04-14T04:39:46.049Z,99.90
2023-04-14T04:42:12.754Z,99.90
2023-04-14T04:44:39.513Z,99.90
2023-04-14T04:47:06.754Z,99.90
2023-04-14T04:49:33.519Z,99.90
2023-04-14T04:52:00.234Z,99.90
2023-04-14T04:54:27.183Z,99.90
2023-04-14T04:56:54.068Z,99.90
2023-04-14T04:59:20.790Z,99.90
2023-04-14T05:01:47.674Z,99.90
2023-04-14T05:04:14.542Z,99.90
2023-04-14T05:06:41.419Z,99.90
2023-04-14T05:09:08.237Z,99.90
2023-04-14T05:11:35.660Z,99.90
2023-04-14T05:14:03.029Z,99.90
2023-04-14T05:16:29.951Z,99.90
2023-04-14T05:18:56.700Z,99.90
2023-04-14T05:21:23.807Z,99.90
2023-04-14T05:23:51.103Z,99.90
2023-04-14T05:28:47.543Z,99.90
2023-04-14T05:31:14.454Z,99.90
2023-04-14T05:33:41.197Z,99.90
2023-04-14T05:36:07.974Z,99.90
2023-04-14T05:38:39.908Z,99.90
2023-04-14T05:41:07.495Z,99.90
2023-04-14T05:43:34.430Z,99.90
2023-04-14T05:46:01.637Z,99.90
2023-04-14T05:48:30.769Z,99.90
2023-04-14T05:50:58.177Z,99.90
2023-04-14T05:53:25.825Z,99.90
2023-04-14T05:55:53.210Z,99.90
2023-04-14T05:58:20.069Z,99.90
2023-04-14T06:00:47.121Z,99.90
2023-04-14T06:03:15.046Z,99.90
2023-04-14T06:05:41.974Z,99.90
2023-04-14T06:08:08.777Z,99.90
2023-04-14T06:10:35.861Z,99.90
2023-04-14T06:13:02.643Z,99.90
2023-04-14T06:15:29.826Z,99.90
2023-04-14T06:17:56.686Z,99.90
2023-04-14T06:20:23.544Z,99.90
2023-04-14T06:22:50.789Z,99.90
2023-04-14T06:25:17.505Z,99.90
2023-04-14T06:27:44.317Z,99.90
2023-04-14T06:30:11.721Z,99.90
2023-04-14T06:32:38.420Z,99.90
2023-04-14T06:35:05.562Z,99.90
2023-04-14T06:37:32.463Z,99.90
2023-04-14T06:39:59.247Z,99.90
2023-04-14T06:42:26.241Z,99.90
2023-04-14T06:44:53.104Z,99.90
2023-04-14T06:47:21.013Z,99.90
2023-04-14T06:49:48.228Z,99.90
2023-04-14T06:52:14.924Z,99.90
2023-04-14T06:54:42.331Z,99.90
2023-04-14T06:57:09.348Z,99.90
2023-04-14T06:59:36.686Z,99.90
2023-04-14T07:02:03.535Z,99.90
2023-04-14T07:04:30.596Z,99.90
2023-04-14T07:07:01.536Z,99.90
2023-04-14T07:09:31.206Z,99.90
2023-04-14T07:11:58.030Z,99.90
2023-04-14T07:14:24.853Z,99.90
2023-04-14T07:16:52.336Z,99.90
2023-04-14T07:19:19.409Z,99.90
2023-04-14T07:21:46.957Z,99.90
2023-04-14T07:24:15.599Z,99.90
2023-04-14T07:26:44.157Z,99.90
2023-04-14T07:29:10.920Z,99.90
2023-04-14T07:31:38.890Z,99.90
2023-04-14T07:34:05.986Z,99.90
2023-04-14T07:36:33.238Z,99.90
2023-04-14T07:39:00.276Z,99.90
2023-04-14T07:41:27.914Z,99.90
2023-04-14T07:43:59.469Z,99.90
2023-04-14T07:46:26.473Z,99.90
2023-04-14T07:48:53.303Z,99.90
2023-04-14T07:51:20.790Z,99.90
2023-04-14T07:53:47.605Z,99.90
2023-04-14T07:56:15.584Z,99.90
2023-04-14T07:58:42.514Z,99.90
2023-04-14T08:01:09.310Z,99.90
2023-04-14T08:03:37.751Z,99.90
2023-04-14T08:06:09.002Z,99.90
2023-04-14T08:08:36.745Z,99.90
2023-04-14T08:11:03.530Z,99.90
2023-04-14T08:13:30.278Z,99.90
2023-04-14T08:15:57.059Z,99.90
2023-04-14T08:18:23.838Z,99.90
2023-04-14T08:20:50.629Z,99.90
2023-04-14T08:23:17.441Z,99.90
2023-04-14T08:25:44.648Z,99.90
2023-04-14T08:28:12.390Z,99.80
2023-04-14T08:30:39.065Z,99.70
2023-04-14T08:33:05.887Z,99.60
2023-04-14T08:35:36.837Z,99.20
2023-04-14T08:38:08.356Z,98.80
2023-04-14T08:40:40.897Z,98.50
2023-04-14T08:43:07.864Z,98.30
2023-04-14T08:45:35.572Z,98.00
2023-04-14T08:48:04.509Z,97.70
2023-04-14T08:50:42.334Z,97.40
2023-04-14T08:53:10.175Z,97.10
2023-04-14T08:55:41.869Z,96.80
2023-04-14T08:58:12.028Z,96.80
2023-04-14T09:00:40.157Z,96.80
2023-04-14T09:03:09.320Z,96.60
2023-04-14T09:05:37.301Z,96.20
2023-04-14T09:08:04.536Z,96.10
2023-04-14T09:10:31.844Z,96.10
2023-04-14T09:12:58.768Z,95.70
2023-04-14T09:15:28.626Z,95.40
2023-04-14T09:17:56.152Z,95.20
2023-04-14T09:20:35.962Z,95.30
2023-04-14T09:23:09.467Z,94.70
2023-04-14T09:25:38.237Z,94.70
2023-04-14T09:28:05.064Z,94.30
2023-04-14T09:30:32.795Z,94.10
2023-04-14T09:32:59.507Z,94.00
2023-04-14T09:35:46.569Z,93.90
2023-04-14T09:38:13.438Z,93.80
2023-04-14T09:40:44.376Z,93.60
2023-04-14T09:43:25.506Z,93.30
2023-04-14T09:45:52.827Z,93.10
2023-04-14T09:48:20.856Z,93.20
2023-04-14T09:51:00.128Z,93.20
2023-04-14T09:53:29.006Z,93.30
2023-04-14T09:55:57.110Z,92.80
2023-04-14T09:58:27.315Z,92.30
2023-04-14T10:00:55.300Z,92.00
2023-04-14T10:03:43.126Z,92.00
2023-04-14T10:06:15.905Z,91.50
2023-04-14T10:08:44.291Z,91.40
2023-04-14T10:11:14.198Z,91.50
2023-04-14T10:13:41.028Z,91.10
2023-04-14T10:16:08.929Z,91.00
2023-04-14T10:18:36.242Z,91.00
2023-04-14T10:21:04.280Z,90.80
2023-04-14T10:23:31.835Z,90.80
2023-04-14T10:25:59.384Z,91.00
2023-04-14T10:28:28.644Z,91.00
2023-04-14T10:30:57.602Z,90.70
2023-04-14T10:33:25.007Z,90.40
2023-04-14T10:35:58.944Z,90.60
2023-04-14T10:38:43.198Z,90.20
2023-04-14T10:41:11.260Z,89.40
2023-04-14T10:43:38.824Z,89.60
2023-04-14T10:46:07.759Z,89.00
2023-04-14T10:48:36.839Z,88.20
2023-04-14T10:51:05.777Z,87.40
2023-04-14T10:53:52.620Z,87.80
2023-04-14T10:56:21.624Z,87.90
2023-04-14T10:58:56.349Z,87.70
2023-04-14T11:01:31.531Z,87.70
2023-04-14T11:04:18.826Z,86.80
2023-04-14T11:06:46.167Z,85.60
2023-04-14T11:09:27.578Z,86.30
2023-04-14T11:11:56.677Z,85.70
2023-04-14T11:14:28.151Z,85.30
2023-04-14T11:17:03.688Z,84.20
2023-04-14T11:19:32.686Z,84.50
2023-04-14T11:21:59.464Z,83.30
2023-04-14T11:24:26.741Z,83.10
2023-04-14T11:26:57.136Z,84.30
2023-04-14T11:29:24.078Z,85.20
2023-04-14T11:32:05.375Z,84.00
2023-04-14T11:34:33.517Z,82.60
2023-04-14T11:37:04.054Z,82.20
2023-04-14T11:39:31.006Z,81.90
2023-04-14T11:42:00.555Z,81.50
2023-04-14T11:44:27.577Z,81.40
2023-04-14T11:46:54.448Z,81.10
2023-04-14T11:49:35.903Z,80.90
2023-04-14T11:52:09.174Z,81.00
2023-04-14T11:54:37.298Z,80.50
2023-04-14T11:57:09.968Z,80.40
2023-04-14T11:59:47.692Z,80.10
2023-04-14T12:02:22.025Z,79.70
2023-04-14T12:04:50.938Z,79.00
2023-04-14T12:07:19.708Z,79.00
2023-04-14T12:09:50.469Z,78.50
2023-04-14T12:12:18.803Z,76.40
2023-04-14T12:14:47.421Z,75.60
2023-04-14T12:17:17.593Z,74.60
2023-04-14T12:19:48.890Z,73.90
2023-04-14T12:22:27.266Z,73.50
2023-04-14T12:24:55.396Z,72.40
2023-04-14T12:27:23.722Z,72.10
2023-04-14T12:29:51.660Z,71.10
2023-04-14T12:32:18.922Z,70.90
2023-04-14T12:34:58.569Z,71.90
2023-04-14T12:37:26.855Z,70.50
2023-04-14T12:40:00.492Z,69.70
2023-04-14T12:42:30.300Z,68.60
2023-04-14T12:44:58.939Z,69.80
2023-04-14T12:47:33.982Z,69.30
2023-04-14T12:50:02.325Z,68.30
2023-04-14T12:52:40.428Z,68.40
2023-04-14T12:55:08.173Z,67.70
2023-04-14T12:57:35.303Z,68.70
2023-04-14T13:00:02.195Z,68.20
2023-04-14T13:02:30.079Z,67.10
2023-04-14T13:04:57.369Z,67.40
2023-04-14T13:07:24.172Z,68.10
2023-04-14T13:09:52.019Z,67.40
2023-04-14T13:12:18.866Z,66.70
2023-04-14T13:14:45.651Z,67.00
2023-04-14T13:17:12.651Z,67.20
2023-04-14T13:19:39.490Z,66.50
2023-04-14T13:22:06.454Z,65.90
2023-04-14T13:24:33.146Z,66.50
2023-04-14T13:26:59.940Z,67.50
2023-04-14T13:29:26.687Z,67.30
2023-04-14T13:31:53.494Z,67.20
2023-04-14T13:34:20.427Z,67.40
2023-04-14T13:36:48.308Z,67.80
2023-04-14T13:39:15.445Z,67.00
2023-04-14T13:41:42.217Z,66.40
2023-04-14T13:44:09.160Z,65.40
2023-04-14T13:46:40.790Z,64.90
2023-04-14T13:49:08.057Z,65.30
2023-04-14T13:51:34.831Z,64.90
2023-04-14T13:54:01.655Z,64.50
2023-04-14T13:56:28.763Z,62.80
2023-04-14T13:58:55.513Z,61.70
2023-04-14T14:01:22.476Z,60.90
2023-04-14T14:03:50.635Z,60.50
2023-04-14T14:06:19.040Z,59.70
2023-04-14T14:08:46.147Z,59.50
2023-04-14T14:11:13.978Z,59.80
2023-04-14T14:13:40.832Z,61.20
2023-04-14T14:16:09.032Z,61.90
2023-04-14T14:18:38.889Z,62.30
2023-04-14T14:21:07.422Z,60.20
2023-04-14T14:23:34.294Z,59.20
2023-04-14T14:26:01.223Z,59.20
2023-04-14T14:28:28.126Z,59.10
2023-04-14T14:30:55.783Z,59.30
2023-04-14T14:33:22.542Z,60.80
2023-04-14T14:35:49.296Z,60.70
2023-04-14T14:38:16.039Z,59.80
2023-04-14T14:40:42.765Z,58.50
2023-04-14T14:43:09.565Z,57.50
2023-04-14T14:45:36.523Z,56.80
2023-04-14T14:48:03.999Z,56.20
2023-04-14T14:50:30.796Z,56.00
2023-04-14T14:52:57.418Z,56.00
2023-04-14T14:55:24.337Z,56.70
2023-04-14T14:57:51.392Z,56.80
2023-04-14T15:00:18.787Z,56.40
2023-04-14T15:02:45.630Z,56.40
2023-04-14T15:05:12.685Z,56.40
2023-04-14T15:07:39.806Z,57.00
2023-04-14T15:10:07.257Z,57.70
2023-04-14T15:12:33.995Z,57.80
2023-04-14T15:15:00.827Z,57.50
2023-04-14T15:17:27.569Z,57.20
2023-04-14T15:19:54.367Z,56.90
2023-04-14T15:22:21.290Z,56.50
2023-04-14T15:24:48.056Z,56.40
2023-04-14T15:27:14.757Z,56.70
2023-04-14T15:29:41.491Z,57.10
2023-04-14T15:32:08.240Z,57.50
2023-04-14T15:34:35.028Z,58.30
2023-04-14T15:37:01.833Z,59.30
2023-04-14T15:39:28.804Z,59.70
2023-04-14T15:41:55.778Z,60.70
2023-04-14T15:44:22.692Z,61.50
2023-04-14T15:46:50.287Z,62.40
2023-04-14T15:49:17.012Z,63.80
2023-04-14T15:51:43.722Z,64.40
2023-04-14T15:54:10.937Z,63.80
2023-04-14T15:56:37.601Z,63.20
2023-04-14T15:59:04.374Z,63.10
2023-04-14T16:01:31.202Z,63.10
2023-04-14T16:03:57.985Z,63.50
2023-04-14T16:06:24.809Z,63.80
2023-04-14T16:08:51.528Z,63.80
2023-04-14T16:11:19.233Z,63.70
2023-04-14T16:13:46.429Z,63.90
2023-04-14T16:16:14.977Z,64.20
2023-04-14T16:18:42.327Z,64.90
2023-04-14T16:21:09.226Z,65.80
2023-04-14T16:23:35.961Z,65.70
2023-04-14T16:26:02.829Z,66.10
2023-04-14T16:28:29.549Z,66.60
2023-04-14T16:30:59.894Z,67.10
2023-04-14T16:33:27.511Z,67.70
2023-04-14T16:35:57.094Z,67.70
2023-04-14T16:38:23.920Z,67.90
2023-04-14T16:40:56.281Z,68.00
2023-04-14T16:43:23.722Z,67.90
2023-04-14T16:45:51.778Z,68.30
2023-04-14T16:48:18.998Z,68.50
2023-04-14T16:50:48.844Z,69.30
2023-04-14T16:53:15.776Z,70.30
2023-04-14T16:55:42.619Z,70.20
2023-04-14T16:58:09.828Z,70.10
2023-04-14T17:00:37.494Z,70.60
2023-04-14T17:03:06.742Z,71.40
2023-04-14T17:05:33.859Z,71.90
2023-04-14T17:08:00.720Z,71.80
2023-04-14T17:10:29.486Z,72.10
2023-04-14T17:12:56.380Z,72.20
2023-04-14T17:15:23.676Z,72.70
2023-04-14T17:17:50.482Z,73.10
2023-04-14T17:20:17.314Z,73.30
2023-04-14T17:22:44.083Z,73.20
2023-04-14T17:25:12.366Z,73.30
2023-04-14T17:27:39.180Z,73.90
2023-04-14T17:30:07.933Z,74.20
2023-04-14T17:32:35.885Z,73.90
2023-04-14T17:35:03.722Z,73.80
2023-04-14T17:37:30.668Z,75.00
2023-04-14T17:39:59.090Z,74.40
2023-04-14T17:42:26.365Z,74.80
2023-04-14T17:44:53.150Z,74.60
2023-04-14T17:47:21.860Z,74.70
2023-04-14T17:49:50.011Z,74.70
2023-04-14T17:52:17.552Z,74.80
2023-04-14T17:54:45.848Z,75.50
2023-04-14T17:57:13.323Z,76.30
2023-04-14T17:59:41.616Z,76.70
2023-04-14T18:02:09.149Z,77.10
2023-04-14T18:04:36.282Z,76.90
2023-04-14T18:07:03.053Z,77.00
2023-04-14T18:09:29.808Z,77.10
2023-04-14T18:11:56.461Z,77.40
2023-04-14T18:14:24.052Z,77.50
2023-04-14T18:16:50.761Z,77.80
2023-04-14T18:19:17.912Z,78.50
2023-04-14T18:21:45.147Z,79.30
2023-04-14T18:26:42.424Z,80.50
2023-04-14T18:29:09.155Z,81.30
2023-04-14T18:31:35.989Z,82.00
2023-04-14T18:34:06.026Z,82.40
2023-04-14T18:36:33.381Z,82.40
2023-04-14T18:39:01.271Z,83.00
2023-04-14T18:41:28.194Z,83.70
2023-04-14T18:43:54.907Z,83.60
2023-04-14T18:46:21.902Z,83.60
2023-04-14T18:48:49.298Z,83.40
2023-04-14T18:51:16.618Z,83.80
2023-04-14T18:53:45.235Z,84.50
2023-04-14T18:56:13.429Z,84.60
2023-04-14T18:58:40.296Z,84.30
2023-04-14T19:01:08.318Z,84.00
2023-04-14T19:03:35.658Z,84.30
2023-04-14T19:06:02.499Z,84.60
2023-04-14T19:08:29.273Z,84.50
2023-04-14T19:10:57.420Z,84.40
2023-04-14T19:13:24.390Z,84.30
2023-04-14T19:15:51.106Z,84.60
2023-04-14T19:18:17.973Z,85.20
2023-04-14T19:20:47.347Z,85.40
2023-04-14T19:23:14.273Z,85.70
2023-04-14T19:25:41.863Z,86.30
2023-04-14T19:28:16.338Z,86.70
2023-04-14T19:30:44.344Z,87.30
2023-04-14T19:33:11.728Z,87.90
2023-04-14T19:35:39.029Z,88.60
2023-04-14T19:38:05.870Z,89.20
2023-04-14T19:40:32.649Z,90.00
2023-04-14T19:42:59.510Z,90.30
2023-04-14T19:45:26.230Z,90.50
2023-04-14T19:47:54.045Z,90.80
2023-04-14T19:50:22.722Z,91.00
2023-04-14T19:52:52.083Z,91.10
2023-04-14T19:55:19.080Z,91.50
2023-04-14T19:57:46.904Z,91.40
2023-04-14T20:00:14.134Z,91.60
2023-04-14T20:02:42.054Z,91.80
2023-04-14T20:05:09.988Z,91.90
2023-04-14T20:07:36.763Z,92.20
2023-04-14T20:10:04.061Z,92.60
2023-04-14T20:12:30.830Z,92.80
2023-04-14T20:14:58.178Z,92.90
2023-04-14T20:17:27.081Z,93.00
2023-04-14T20:19:53.909Z,93.10
2023-04-14T20:22:20.600Z,93.20
2023-04-14T20:24:47.523Z,93.30
2023-04-14T20:27:14.286Z,93.40
2023-04-14T20:29:41.027Z,93.50
2023-04-14T20:32:07.869Z,93.50
2023-04-14T20:34:35.430Z,93.60
2023-04-14T20:37:02.715Z,93.60
2023-04-14T20:39:29.511Z,93.60
2023-04-14T20:41:56.578Z,93.60
2023-04-14T20:44:23.597Z,93.60
2023-04-14T20:46:50.537Z,93.70
2023-04-14T20:49:17.488Z,93.80
2023-04-14T20:51:46.745Z,93.90
2023-04-14T20:54:13.951Z,94.10
2023-04-14T20:56:40.811Z,94.20
2023-04-14T20:59:07.665Z,94.30
2023-04-14T21:01:34.475Z,94.30
2023-04-14T21:04:02.437Z,94.30
2023-04-14T21:06:32.354Z,94.30
2023-04-14T21:08:59.709Z,94.30
2023-04-14T21:11:26.621Z,94.20
2023-04-14T21:15:42.231Z,94.20
2023-04-14T21:16:40.047Z,94.30
2023-04-14T21:19:07.524Z,94.30
2023-04-14T21:21:34.224Z,94.40
2023-04-14T21:24:01.965Z,94.60
2023-04-14T21:26:29.343Z,94.80
2023-04-14T21:28:56.521Z,94.90
2023-04-14T21:31:23.311Z,95.00
2023-04-14T21:33:50.434Z,95.10
2023-04-14T21:36:17.176Z,95.30
2023-04-14T21:38:44.196Z,95.30
2023-04-14T21:41:11.047Z,95.40
2023-04-14T21:43:40.663Z,95.40
2023-04-14T21:46:08.066Z,95.40
2023-04-14T21:48:34.977Z,95.50
2023-04-14T21:51:02.371Z,95.60
2023-04-14T21:53:29.633Z,95.60
2023-04-14T21:56:08.657Z,95.60
2023-04-14T21:58:37.400Z,95.60
2023-04-14T22:01:04.691Z,95.50
2023-04-14T22:03:33.235Z,95.60
2023-04-14T22:06:00.118Z,95.50
2023-04-14T22:08:26.900Z,95.60
2023-04-14T22:10:53.556Z,95.80
2023-04-14T22:13:20.865Z,95.90
2023-04-14T22:15:49.087Z,95.90
2023-04-14T22:18:17.130Z,96.00
2023-04-14T22:20:45.118Z,95.90
2023-04-14T22:23:13.109Z,96.00
2023-04-14T22:25:39.882Z,96.20
2023-04-14T22:28:07.335Z,96.40
2023-04-14T22:30:34.138Z,96.40
2023-04-14T22:33:01.162Z,96.40
2023-04-14T22:35:27.958Z,96.40
2023-04-14T22:37:54.692Z,96.30
2023-04-14T22:40:22.011Z,96.30
2023-04-14T22:42:48.751Z,96.30
2023-04-14T22:45:15.522Z,96.40
2023-04-14T22:47:42.270Z,96.50
2023-04-14T22:50:09.481Z,96.50
2023-04-14T22:52:36.384Z,96.60
2023-04-14T22:55:03.358Z,96.60
2023-04-14T22:57:30.090Z,96.70
2023-04-14T22:59:57.399Z,96.60
2023-04-14T23:02:24.256Z,96.70
2023-04-14T23:04:51.292Z,96.80
2023-04-14T23:07:18.094Z,96.90
2023-04-14T23:09:44.912Z,97.00
2023-04-14T23:12:11.988Z,97.10
2023-04-14T23:14:38.760Z,97.10
2023-04-14T23:17:05.733Z,97.30
2023-04-14T23:19:33.571Z,97.40
2023-04-14T23:22:00.295Z,97.30
2023-04-14T23:24:27.028Z,97.30
2023-04-14T23:26:54.068Z,97.30
2023-04-14T23:29:20.957Z,97.20
2023-04-14T23:31:47.678Z,97.30
2023-04-14T23:34:14.425Z,97.30
2023-04-14T23:36:41.683Z,97.30
2023-04-14T23:39:08.546Z,97.40
2023-04-14T23:41:35.510Z,97.40
2023-04-14T23:44:02.261Z,97.50
2023-04-14T23:46:29.150Z,97.50
2023-04-14T23:48:56.815Z,97.50
2023-04-14T23:51:24.161Z,97.60
2023-04-14T23:53:51.788Z,97.60
2023-04-14T23:56:18.540Z,97.60
2023-04-14T23:58:45.306Z,97.60
